AMM weather

Queen Alia International Airport
Amman, Amman Governorate, Jordan

Public forecast

Using degrees Celsius for public forecast. Weather courtesy of forecast.io.

Current aviation weather report (METAR) for Queen Alia International Airport

Retrieved 2019/12/09 12:00 UTC (39 minutes ago):

OJAI 091200Z 22014KT 5000 HZ SCT025 SCT030 14/10 Q1014 NOSIG

Aviation forecast (TAF) for Queen Alia International Airport

Retrieved 2019/12/09 12:15 UTC (24 minutes ago):

TAF TAF OJAI 091013Z 0912/1018 25016KT 4000 BR SCT020 SCT025 TEMPO 0912/1006 1500 TSRA BR FEW020CB SCT020 BKN025 TEMPO 1006/1016 23008KT 3000 RA FEW020TCU SCT020 SCT025